sensor_id;sensor_type;location;lat;lon;timestamp;P1;durP1;ratioP1;P2;durP2;ratioP2
22103;SDS011;11218;48.886;9.426;2023-05-10T00:02:22;23.55;;;4.80;;
22103;SDS011;11218;48.886;9.426;2023-05-10T00:04:51;33.85;;;6.20;;
22103;SDS011;11218;48.886;9.426;2023-05-10T00:07:19;30.05;;;5.70;;
22103;SDS011;11218;48.886;9.426;2023-05-10T00:09:48;25.75;;;5.00;;
22103;SDS011;11218;48.886;9.426;2023-05-10T00:12:16;23.88;;;4.82;;
22103;SDS011;11218;48.886;9.426;2023-05-10T00:14:44;23.23;;;4.85;;
22103;SDS011;11218;48.886;9.426;2023-05-10T00:17:14;28.27;;;5.45;;
22103;SDS011;11218;48.886;9.426;2023-05-10T00:19:42;17.83;;;3.92;;
22103;SDS011;11218;48.886;9.426;2023-05-10T00:22:10;21.65;;;4.38;;
22103;SDS011;11218;48.886;9.426;2023-05-10T00:24:38;25.10;;;4.82;;
22103;SDS011;11218;48.886;9.426;2023-05-10T00:27:06;24.88;;;5.13;;
22103;SDS011;11218;48.886;9.426;2023-05-10T00:29:34;20.42;;;4.15;;
22103;SDS011;11218;48.886;9.426;2023-05-10T00:32:02;18.23;;;3.72;;
22103;SDS011;11218;48.886;9.426;2023-05-10T00:34:32;20.05;;;3.90;;
22103;SDS011;11218;48.886;9.426;2023-05-10T00:37:00;23.85;;;4.38;;
22103;SDS011;11218;48.886;9.426;2023-05-10T00:39:29;16.63;;;3.03;;
22103;SDS011;11218;48.886;9.426;2023-05-10T00:41:57;18.15;;;3.50;;
22103;SDS011;11218;48.886;9.426;2023-05-10T00:44:25;15.60;;;3.03;;
22103;SDS011;11218;48.886;9.426;2023-05-10T00:46:53;18.08;;;3.42;;
22103;SDS011;11218;48.886;9.426;2023-05-10T00:49:22;23.10;;;4.07;;
22103;SDS011;11218;48.886;9.426;2023-05-10T00:51:51;17.98;;;3.50;;
22103;SDS011;11218;48.886;9.426;2023-05-10T00:54:19;18.95;;;3.35;;
22103;SDS011;11218;48.886;9.426;2023-05-10T00:56:48;18.80;;;3.53;;
22103;SDS011;11218;48.886;9.426;2023-05-10T00:59:16;21.70;;;3.90;;
22103;SDS011;11218;48.886;9.426;2023-05-10T01:01:45;24.20;;;4.35;;
22103;SDS011;11218;48.886;9.426;2023-05-10T01:04:13;15.27;;;3.03;;
22103;SDS011;11218;48.886;9.426;2023-05-10T01:06:42;17.15;;;3.17;;
22103;SDS011;11218;48.886;9.426;2023-05-10T01:09:12;25.42;;;4.40;;
22103;SDS011;11218;48.886;9.426;2023-05-10T01:11:40;22.50;;;3.90;;
22103;SDS011;11218;48.886;9.426;2023-05-10T01:14:08;21.10;;;3.90;;
22103;SDS011;11218;48.886;9.426;2023-05-10T01:16:37;23.50;;;4.28;;
22103;SDS011;11218;48.886;9.426;2023-05-10T01:19:08;32.05;;;5.82;;
22103;SDS011;11218;48.886;9.426;2023-05-10T01:21:42;24.70;;;4.43;;
22103;SDS011;11218;48.886;9.426;2023-05-10T01:27:38;24.58;;;4.28;;
22103;SDS011;11218;48.886;9.426;2023-05-10T01:33:26;23.88;;;4.57;;
22103;SDS011;11218;48.886;9.426;2023-05-10T01:36:01;16.08;;;3.38;;
22103;SDS011;11218;48.886;9.426;2023-05-10T01:38:36;21.08;;;3.97;;
22103;SDS011;11218;48.886;9.426;2023-05-10T01:41:12;38.65;;;6.15;;
22103;SDS011;11218;48.886;9.426;2023-05-10T01:43:48;21.33;;;4.18;;
22103;SDS011;11218;48.886;9.426;2023-05-10T01:46:24;27.05;;;5.18;;
22103;SDS011;11218;48.886;9.426;2023-05-10T01:48:58;23.25;;;4.25;;
22103;SDS011;11218;48.886;9.426;2023-05-10T01:51:29;22.08;;;4.45;;
22103;SDS011;11218;48.886;9.426;2023-05-10T01:54:03;21.55;;;4.38;;
22103;SDS011;11218;48.886;9.426;2023-05-10T01:56:33;27.08;;;4.90;;
22103;SDS011;11218;48.886;9.426;2023-05-10T01:59:06;29.42;;;5.22;;
22103;SDS011;11218;48.886;9.426;2023-05-10T02:01:38;22.38;;;4.55;;
22103;SDS011;11218;48.886;9.426;2023-05-10T02:04:09;23.67;;;4.65;;
22103;SDS011;11218;48.886;9.426;2023-05-10T02:06:40;26.02;;;5.07;;
22103;SDS011;11218;48.886;9.426;2023-05-10T02:09:10;33.22;;;6.30;;
22103;SDS011;11218;48.886;9.426;2023-05-10T02:11:39;24.27;;;4.78;;
22103;SDS011;11218;48.886;9.426;2023-05-10T02:14:10;28.58;;;5.80;;
22103;SDS011;11218;48.886;9.426;2023-05-10T02:16:39;24.10;;;5.10;;
22103;SDS011;11218;48.886;9.426;2023-05-10T02:19:10;31.95;;;6.40;;
22103;SDS011;11218;48.886;9.426;2023-05-10T02:21:41;20.90;;;4.68;;
22103;SDS011;11218;48.886;9.426;2023-05-10T02:24:10;29.20;;;6.15;;
22103;SDS011;11218;48.886;9.426;2023-05-10T02:26:39;19.92;;;4.68;;
22103;SDS011;11218;48.886;9.426;2023-05-10T02:29:09;24.20;;;5.13;;
22103;SDS011;11218;48.886;9.426;2023-05-10T02:31:38;27.10;;;5.70;;
22103;SDS011;11218;48.886;9.426;2023-05-10T02:34:11;29.92;;;6.15;;
22103;SDS011;11218;48.886;9.426;2023-05-10T02:36:40;27.75;;;5.90;;
22103;SDS011;11218;48.886;9.426;2023-05-10T02:39:10;23.02;;;4.95;;
22103;SDS011;11218;48.886;9.426;2023-05-10T02:41:40;18.00;;;4.22;;
22103;SDS011;11218;48.886;9.426;2023-05-10T02:44:11;32.67;;;6.57;;
22103;SDS011;11218;48.886;9.426;2023-05-10T02:46:41;21.02;;;4.82;;
22103;SDS011;11218;48.886;9.426;2023-05-10T02:49:11;21.20;;;4.63;;
22103;SDS011;11218;48.886;9.426;2023-05-10T02:51:40;23.42;;;4.90;;
22103;SDS011;11218;48.886;9.426;2023-05-10T02:54:12;26.73;;;5.60;;
22103;SDS011;11218;48.886;9.426;2023-05-10T02:56:47;20.05;;;4.53;;
22103;SDS011;11218;48.886;9.426;2023-05-10T02:59:18;24.95;;;5.32;;
22103;SDS011;11218;48.886;9.426;2023-05-10T03:01:46;20.95;;;4.85;;
22103;SDS011;11218;48.886;9.426;2023-05-10T03:04:15;31.08;;;6.15;;
22103;SDS011;11218;48.886;9.426;2023-05-10T03:06:43;25.17;;;5.45;;
22103;SDS011;11218;48.886;9.426;2023-05-10T03:09:12;30.73;;;5.90;;
22103;SDS011;11218;48.886;9.426;2023-05-10T03:11:47;18.20;;;4.20;;
22103;SDS011;11218;48.886;9.426;2023-05-10T03:14:25;21.77;;;4.70;;
22103;SDS011;11218;48.886;9.426;2023-05-10T03:17:04;13.85;;;3.67;;
22103;SDS011;11218;48.886;9.426;2023-05-10T03:19:39;16.27;;;3.60;;
22103;SDS011;11218;48.886;9.426;2023-05-10T03:22:14;20.15;;;4.50;;
22103;SDS011;11218;48.886;9.426;2023-05-10T03:24:51;13.98;;;3.45;;
22103;SDS011;11218;48.886;9.426;2023-05-10T03:27:23;17.17;;;3.70;;
22103;SDS011;11218;48.886;9.426;2023-05-10T03:29:53;16.42;;;3.53;;
22103;SDS011;11218;48.886;9.426;2023-05-10T03:32:23;13.52;;;3.35;;
22103;SDS011;11218;48.886;9.426;2023-05-10T03:34:53;14.90;;;3.35;;
22103;SDS011;11218;48.886;9.426;2023-05-10T03:37:21;15.93;;;3.58;;
22103;SDS011;11218;48.886;9.426;2023-05-10T03:39:49;15.55;;;3.67;;
22103;SDS011;11218;48.886;9.426;2023-05-10T03:42:18;20.70;;;4.30;;
22103;SDS011;11218;48.886;9.426;2023-05-10T03:44:45;20.60;;;4.30;;
22103;SDS011;11218;48.886;9.426;2023-05-10T03:47:15;23.67;;;4.93;;
22103;SDS011;11218;48.886;9.426;2023-05-10T03:49:43;11.77;;;3.00;;
22103;SDS011;11218;48.886;9.426;2023-05-10T03:52:13;23.80;;;4.97;;
22103;SDS011;11218;48.886;9.426;2023-05-10T03:54:41;24.38;;;4.85;;
22103;SDS011;11218;48.886;9.426;2023-05-10T03:57:09;24.88;;;5.00;;
22103;SDS011;11218;48.886;9.426;2023-05-10T03:59:38;20.98;;;4.47;;
22103;SDS011;11218;48.886;9.426;2023-05-10T04:02:06;21.95;;;4.72;;
22103;SDS011;11218;48.886;9.426;2023-05-10T04:04:34;17.65;;;4.03;;
22103;SDS011;11218;48.886;9.426;2023-05-10T04:07:02;17.20;;;3.97;;
22103;SDS011;11218;48.886;9.426;2023-05-10T04:09:32;22.20;;;5.05;;
22103;SDS011;11218;48.886;9.426;2023-05-10T04:12:00;31.58;;;6.35;;
22103;SDS011;11218;48.886;9.426;2023-05-10T04:14:28;29.60;;;6.03;;
22103;SDS011;11218;48.886;9.426;2023-05-10T04:16:56;26.10;;;5.70;;
22103;SDS011;11218;48.886;9.426;2023-05-10T04:19:28;33.45;;;6.53;;
22103;SDS011;11218;48.886;9.426;2023-05-10T04:21:57;25.50;;;5.68;;
22103;SDS011;11218;48.886;9.426;2023-05-10T04:24:26;29.88;;;6.10;;
22103;SDS011;11218;48.886;9.426;2023-05-10T04:26:55;23.67;;;5.55;;
22103;SDS011;11218;48.886;9.426;2023-05-10T04:29:23;32.95;;;6.65;;
22103;SDS011;11218;48.886;9.426;2023-05-10T04:31:51;22.83;;;5.22;;
22103;SDS011;11218;48.886;9.426;2023-05-10T04:34:20;31.88;;;6.90;;
22103;SDS011;11218;48.886;9.426;2023-05-10T04:36:48;24.20;;;5.38;;
22103;SDS011;11218;48.886;9.426;2023-05-10T04:39:15;23.58;;;5.35;;
22103;SDS011;11218;48.886;9.426;2023-05-10T04:41:44;21.10;;;5.22;;
22103;SDS011;11218;48.886;9.426;2023-05-10T04:44:13;28.67;;;6.47;;
22103;SDS011;11218;48.886;9.426;2023-05-10T04:46:42;30.27;;;6.82;;
22103;SDS011;11218;48.886;9.426;2023-05-10T04:49:12;31.65;;;6.95;;
22103;SDS011;11218;48.886;9.426;2023-05-10T04:51:40;31.33;;;6.78;;
22103;SDS011;11218;48.886;9.426;2023-05-10T04:54:08;30.85;;;7.03;;
22103;SDS011;11218;48.886;9.426;2023-05-10T04:56:36;22.85;;;5.90;;
22103;SDS011;11218;48.886;9.426;2023-05-10T04:59:04;31.25;;;6.97;;
22103;SDS011;11218;48.886;9.426;2023-05-10T05:01:34;24.48;;;6.05;;
22103;SDS011;11218;48.886;9.426;2023-05-10T05:04:02;21.83;;;5.40;;
22103;SDS011;11218;48.886;9.426;2023-05-10T05:06:31;40.30;;;8.52;;
22103;SDS011;11218;48.886;9.426;2023-05-10T05:08:59;34.72;;;7.65;;
22103;SDS011;11218;48.886;9.426;2023-05-10T05:11:27;27.42;;;6.10;;
22103;SDS011;11218;48.886;9.426;2023-05-10T05:13:55;31.27;;;6.70;;
22103;SDS011;11218;48.886;9.426;2023-05-10T05:16:25;37.58;;;8.30;;
22103;SDS011;11218;48.886;9.426;2023-05-10T05:18:55;32.28;;;7.00;;
22103;SDS011;11218;48.886;9.426;2023-05-10T05:21:23;34.58;;;7.60;;
22103;SDS011;11218;48.886;9.426;2023-05-10T05:23:53;33.38;;;7.43;;
22103;SDS011;11218;48.886;9.426;2023-05-10T05:26:21;33.13;;;7.55;;
22103;SDS011;11218;48.886;9.426;2023-05-10T05:28:49;53.70;;;10.77;;
22103;SDS011;11218;48.886;9.426;2023-05-10T05:31:20;37.85;;;7.38;;
22103;SDS011;11218;48.886;9.426;2023-05-10T05:33:48;24.42;;;5.97;;
22103;SDS011;11218;48.886;9.426;2023-05-10T05:36:18;35.10;;;7.50;;
22103;SDS011;11218;48.886;9.426;2023-05-10T05:38:46;32.88;;;6.93;;
22103;SDS011;11218;48.886;9.426;2023-05-10T05:41:14;37.45;;;7.80;;
22103;SDS011;11218;48.886;9.426;2023-05-10T05:43:42;31.33;;;7.03;;
22103;SDS011;11218;48.886;9.426;2023-05-10T05:46:10;35.88;;;8.07;;
22103;SDS011;11218;48.886;9.426;2023-05-10T05:48:38;35.30;;;8.05;;
22103;SDS011;11218;48.886;9.426;2023-05-10T05:51:06;34.05;;;7.70;;
22103;SDS011;11218;48.886;9.426;2023-05-10T05:53:35;34.08;;;8.00;;
22103;SDS011;11218;48.886;9.426;2023-05-10T05:56:04;34.47;;;8.05;;
22103;SDS011;11218;48.886;9.426;2023-05-10T05:58:32;32.70;;;7.90;;
22103;SDS011;11218;48.886;9.426;2023-05-10T06:01:00;35.08;;;8.02;;
22103;SDS011;11218;48.886;9.426;2023-05-10T06:03:28;20.67;;;5.75;;
22103;SDS011;11218;48.886;9.426;2023-05-10T06:05:56;27.90;;;6.93;;
22103;SDS011;11218;48.886;9.426;2023-05-10T06:08:24;30.58;;;7.38;;
22103;SDS011;11218;48.886;9.426;2023-05-10T06:10:54;28.42;;;7.25;;
22103;SDS011;11218;48.886;9.426;2023-05-10T06:13:25;17.83;;;5.63;;
22103;SDS011;11218;48.886;9.426;2023-05-10T06:15:55;25.85;;;6.65;;
22103;SDS011;11218;48.886;9.426;2023-05-10T06:18:23;36.72;;;8.70;;
22103;SDS011;11218;48.886;9.426;2023-05-10T06:20:51;26.70;;;6.75;;
22103;SDS011;11218;48.886;9.426;2023-05-10T06:23:19;39.30;;;9.13;;
22103;SDS011;11218;48.886;9.426;2023-05-10T06:25:49;28.20;;;7.28;;
22103;SDS011;11218;48.886;9.426;2023-05-10T06:28:18;38.35;;;9.23;;
22103;SDS011;11218;48.886;9.426;2023-05-10T06:30:46;33.85;;;7.90;;
22103;SDS011;11218;48.886;9.426;2023-05-10T06:33:14;38.10;;;8.65;;
22103;SDS011;11218;48.886;9.426;2023-05-10T06:35:43;28.98;;;7.13;;
22103;SDS011;11218;48.886;9.426;2023-05-10T06:38:12;22.75;;;6.45;;
22103;SDS011;11218;48.886;9.426;2023-05-10T06:40:41;31.73;;;7.05;;
22103;SDS011;11218;48.886;9.426;2023-05-10T06:43:09;18.67;;;5.55;;
22103;SDS011;11218;48.886;9.426;2023-05-10T06:45:39;21.42;;;5.80;;
22103;SDS011;11218;48.886;9.426;2023-05-10T06:48:07;27.48;;;7.07;;
22103;SDS011;11218;48.886;9.426;2023-05-10T06:50:36;44.65;;;8.38;;
22103;SDS011;11218;48.886;9.426;2023-05-10T06:53:04;24.65;;;6.72;;
22103;SDS011;11218;48.886;9.426;2023-05-10T06:55:31;34.15;;;7.88;;
22103;SDS011;11218;48.886;9.426;2023-05-10T06:57:59;25.75;;;6.05;;
22103;SDS011;11218;48.886;9.426;2023-05-10T07:00:28;35.80;;;8.38;;
22103;SDS011;11218;48.886;9.426;2023-05-10T07:02:57;28.52;;;7.20;;
22103;SDS011;11218;48.886;9.426;2023-05-10T07:05:25;33.15;;;7.45;;
22103;SDS011;11218;48.886;9.426;2023-05-10T07:07:56;30.30;;;7.03;;
22103;SDS011;11218;48.886;9.426;2023-05-10T07:10:24;23.35;;;6.30;;
22103;SDS011;11218;48.886;9.426;2023-05-10T07:12:51;28.60;;;7.35;;
22103;SDS011;11218;48.886;9.426;2023-05-10T07:15:20;34.08;;;7.50;;
22103;SDS011;11218;48.886;9.426;2023-05-10T07:17:48;28.63;;;6.82;;
22103;SDS011;11218;48.886;9.426;2023-05-10T07:20:18;36.67;;;8.40;;
22103;SDS011;11218;48.886;9.426;2023-05-10T07:22:46;40.10;;;8.90;;
22103;SDS011;11218;48.886;9.426;2023-05-10T07:25:14;32.13;;;7.25;;
22103;SDS011;11218;48.886;9.426;2023-05-10T07:27:43;37.33;;;8.10;;
22103;SDS011;11218;48.886;9.426;2023-05-10T07:30:11;28.33;;;6.90;;
22103;SDS011;11218;48.886;9.426;2023-05-10T07:32:40;30.50;;;7.00;;
22103;SDS011;11218;48.886;9.426;2023-05-10T07:35:09;21.02;;;5.30;;
22103;SDS011;11218;48.886;9.426;2023-05-10T07:37:38;30.67;;;6.80;;
22103;SDS011;11218;48.886;9.426;2023-05-10T07:40:07;22.90;;;5.47;;
22103;SDS011;11218;48.886;9.426;2023-05-10T07:43:05;21.13;;;4.95;;
22103;SDS011;11218;48.886;9.426;2023-05-10T07:45:33;20.70;;;5.05;;
22103;SDS011;11218;48.886;9.426;2023-05-10T07:48:01;24.52;;;5.20;;
22103;SDS011;11218;48.886;9.426;2023-05-10T07:50:30;21.13;;;4.78;;
22103;SDS011;11218;48.886;9.426;2023-05-10T07:52:59;21.38;;;4.32;;
22103;SDS011;11218;48.886;9.426;2023-05-10T07:55:27;13.50;;;3.58;;
22103;SDS011;11218;48.886;9.426;2023-05-10T07:57:55;22.48;;;4.75;;
22103;SDS011;11218;48.886;9.426;2023-05-10T08:00:23;22.58;;;5.00;;
22103;SDS011;11218;48.886;9.426;2023-05-10T08:02:52;10.40;;;2.75;;
22103;SDS011;11218;48.886;9.426;2023-05-10T08:05:20;17.63;;;3.92;;
22103;SDS011;11218;48.886;9.426;2023-05-10T08:07:48;20.98;;;4.60;;
22103;SDS011;11218;48.886;9.426;2023-05-10T08:10:18;24.95;;;5.45;;
22103;SDS011;11218;48.886;9.426;2023-05-10T08:12:46;22.23;;;4.43;;
22103;SDS011;11218;48.886;9.426;2023-05-10T08:15:14;22.52;;;4.90;;
22103;SDS011;11218;48.886;9.426;2023-05-10T08:17:42;25.55;;;5.22;;
22103;SDS011;11218;48.886;9.426;2023-05-10T08:20:12;29.80;;;6.13;;
22103;SDS011;11218;48.886;9.426;2023-05-10T08:22:43;29.02;;;5.22;;
22103;SDS011;11218;48.886;9.426;2023-05-10T08:25:12;30.13;;;5.88;;
22103;SDS011;11218;48.886;9.426;2023-05-10T08:27:42;23.45;;;4.30;;
22103;SDS011;11218;48.886;9.426;2023-05-10T08:30:10;24.98;;;4.95;;
22103;SDS011;11218;48.886;9.426;2023-05-10T08:32:39;15.25;;;3.88;;
22103;SDS011;11218;48.886;9.426;2023-05-10T08:35:07;22.77;;;4.45;;
22103;SDS011;11218;48.886;9.426;2023-05-10T08:37:35;15.82;;;3.67;;
22103;SDS011;11218;48.886;9.426;2023-05-10T08:40:03;28.30;;;6.00;;
22103;SDS011;11218;48.886;9.426;2023-05-10T08:42:33;20.17;;;4.35;;
22103;SDS011;11218;48.886;9.426;2023-05-10T08:45:06;18.08;;;3.92;;
22103;SDS011;11218;48.886;9.426;2023-05-10T08:47:35;18.95;;;4.13;;
22103;SDS011;11218;48.886;9.426;2023-05-10T08:50:05;24.38;;;5.22;;
22103;SDS011;11218;48.886;9.426;2023-05-10T08:52:35;35.08;;;7.15;;
22103;SDS011;11218;48.886;9.426;2023-05-10T08:55:06;40.72;;;7.50;;
22103;SDS011;11218;48.886;9.426;2023-05-10T08:57:35;28.52;;;5.43;;
22103;SDS011;11218;48.886;9.426;2023-05-10T09:00:06;24.70;;;5.05;;
22103;SDS011;11218;48.886;9.426;2023-05-10T09:02:36;37.75;;;7.10;;
22103;SDS011;11218;48.886;9.426;2023-05-10T09:05:05;34.65;;;6.68;;
22103;SDS011;11218;48.886;9.426;2023-05-10T09:07:34;43.78;;;7.82;;
22103;SDS011;11218;48.886;9.426;2023-05-10T09:10:02;29.10;;;5.57;;
22103;SDS011;11218;48.886;9.426;2023-05-10T09:12:32;30.83;;;5.97;;
22103;SDS011;11218;48.886;9.426;2023-05-10T09:15:01;36.70;;;6.85;;
22103;SDS011;11218;48.886;9.426;2023-05-10T09:17:31;27.48;;;5.32;;
22103;SDS011;11218;48.886;9.426;2023-05-10T09:19:59;21.35;;;4.32;;
22103;SDS011;11218;48.886;9.426;2023-05-10T09:22:28;25.05;;;4.80;;
22103;SDS011;11218;48.886;9.426;2023-05-10T09:25:04;19.08;;;3.85;;
22103;SDS011;11218;48.886;9.426;2023-05-10T09:27:33;43.38;;;7.97;;
22103;SDS011;11218;48.886;9.426;2023-05-10T09:30:02;30.75;;;5.65;;
22103;SDS011;11218;48.886;9.426;2023-05-10T09:32:39;46.50;;;8.45;;
22103;SDS011;11218;48.886;9.426;2023-05-10T09:35:09;31.92;;;6.38;;
22103;SDS011;11218;48.886;9.426;2023-05-10T09:37:39;26.40;;;5.07;;
22103;SDS011;11218;48.886;9.426;2023-05-10T09:40:11;21.55;;;4.47;;
22103;SDS011;11218;48.886;9.426;2023-05-10T09:42:42;25.17;;;4.82;;
22103;SDS011;11218;48.886;9.426;2023-05-10T09:45:18;23.45;;;4.63;;
22103;SDS011;11218;48.886;9.426;2023-05-10T09:47:47;29.30;;;4.78;;
22103;SDS011;11218;48.886;9.426;2023-05-10T09:50:16;32.85;;;5.20;;
22103;SDS011;11218;48.886;9.426;2023-05-10T09:52:48;28.63;;;5.47;;
22103;SDS011;11218;48.886;9.426;2023-05-10T09:55:20;23.23;;;4.53;;
22103;SDS011;11218;48.886;9.426;2023-05-10T09:57:58;40.63;;;7.28;;
22103;SDS011;11218;48.886;9.426;2023-05-10T10:00:27;23.63;;;4.53;;
22103;SDS011;11218;48.886;9.426;2023-05-10T10:02:57;34.10;;;6.28;;
22103;SDS011;11218;48.886;9.426;2023-05-10T10:05:29;29.95;;;5.53;;
22103;SDS011;11218;48.886;9.426;2023-05-10T10:07:58;47.88;;;8.68;;
22103;SDS011;11218;48.886;9.426;2023-05-10T10:10:28;42.20;;;7.70;;
22103;SDS011;11218;48.886;9.426;2023-05-10T10:12:56;29.42;;;5.40;;
22103;SDS011;11218;48.886;9.426;2023-05-10T10:15:25;43.40;;;7.68;;
22103;SDS011;11218;48.886;9.426;2023-05-10T10:17:53;29.55;;;5.72;;
22103;SDS011;11218;48.886;9.426;2023-05-10T10:20:23;47.28;;;7.97;;
22103;SDS011;11218;48.886;9.426;2023-05-10T10:22:52;52.75;;;9.43;;
22103;SDS011;11218;48.886;9.426;2023-05-10T10:25:21;43.22;;;8.00;;
22103;SDS011;11218;48.886;9.426;2023-05-10T10:27:55;43.05;;;7.85;;
22103;SDS011;11218;48.886;9.426;2023-05-10T10:30:36;42.67;;;7.82;;
22103;SDS011;11218;48.886;9.426;2023-05-10T10:33:36;40.60;;;7.35;;
22103;SDS011;11218;48.886;9.426;2023-05-10T10:36:16;34.70;;;6.72;;
22103;SDS011;11218;48.886;9.426;2023-05-10T10:38:57;34.15;;;6.43;;
22103;SDS011;11218;48.886;9.426;2023-05-10T10:41:31;36.35;;;6.75;;
22103;SDS011;11218;48.886;9.426;2023-05-10T10:47:01;33.70;;;6.50;;
22103;SDS011;11218;48.886;9.426;2023-05-10T10:49:32;35.20;;;6.63;;
22103;SDS011;11218;48.886;9.426;2023-05-10T10:52:17;36.38;;;6.63;;
22103;SDS011;11218;48.886;9.426;2023-05-10T10:54:50;40.40;;;7.53;;
22103;SDS011;11218;48.886;9.426;2023-05-10T10:57:19;29.13;;;5.53;;
22103;SDS011;11218;48.886;9.426;2023-05-10T10:59:49;38.15;;;7.15;;
22103;SDS011;11218;48.886;9.426;2023-05-10T11:08:18;34.85;;;6.53;;
22103;SDS011;11218;48.886;9.426;2023-05-10T11:11:01;32.92;;;6.28;;
22103;SDS011;11218;48.886;9.426;2023-05-10T11:13:34;20.15;;;4.18;;
22103;SDS011;11218;48.886;9.426;2023-05-10T11:16:15;32.88;;;6.70;;
22103;SDS011;11218;48.886;9.426;2023-05-10T11:18:52;31.17;;;6.07;;
22103;SDS011;11218;48.886;9.426;2023-05-10T11:21:21;35.35;;;6.53;;
22103;SDS011;11218;48.886;9.426;2023-05-10T11:23:52;38.03;;;7.35;;
22103;SDS011;11218;48.886;9.426;2023-05-10T11:26:23;43.65;;;8.23;;
22103;SDS011;11218;48.886;9.426;2023-05-10T11:28:53;38.08;;;7.32;;
22103;SDS011;11218;48.886;9.426;2023-05-10T11:31:25;33.35;;;6.00;;
22103;SDS011;11218;48.886;9.426;2023-05-10T11:33:55;40.05;;;7.25;;
22103;SDS011;11218;48.886;9.426;2023-05-10T11:36:26;38.63;;;7.22;;
22103;SDS011;11218;48.886;9.426;2023-05-10T11:38:57;24.60;;;4.63;;
22103;SDS011;11218;48.886;9.426;2023-05-10T11:41:26;27.00;;;4.78;;
22103;SDS011;11218;48.886;9.426;2023-05-10T11:43:56;32.17;;;5.85;;
22103;SDS011;11218;48.886;9.426;2023-05-10T11:46:26;50.20;;;9.57;;
22103;SDS011;11218;48.886;9.426;2023-05-10T11:48:57;43.05;;;8.13;;
22103;SDS011;11218;48.886;9.426;2023-05-10T11:51:32;55.85;;;9.85;;
22103;SDS011;11218;48.886;9.426;2023-05-10T11:54:05;54.35;;;9.70;;
22103;SDS011;11218;48.886;9.426;2023-05-10T11:56:34;50.65;;;9.45;;
22103;SDS011;11218;48.886;9.426;2023-05-10T11:59:03;48.47;;;8.80;;
22103;SDS011;11218;48.886;9.426;2023-05-10T12:01:32;64.82;;;11.48;;
22103;SDS011;11218;48.886;9.426;2023-05-10T12:04:00;39.22;;;7.22;;
22103;SDS011;11218;48.886;9.426;2023-05-10T12:06:30;62.17;;;10.88;;
22103;SDS011;11218;48.886;9.426;2023-05-10T12:08:59;46.15;;;8.35;;
22103;SDS011;11218;48.886;9.426;2023-05-10T12:11:36;50.05;;;9.00;;
22103;SDS011;11218;48.886;9.426;2023-05-10T12:14:09;57.80;;;10.60;;
22103;SDS011;11218;48.886;9.426;2023-05-10T12:16:37;60.85;;;11.05;;
22103;SDS011;11218;48.886;9.426;2023-05-10T12:19:06;64.03;;;11.38;;
22103;SDS011;11218;48.886;9.426;2023-05-10T12:21:34;62.47;;;11.90;;
22103;SDS011;11218;48.886;9.426;2023-05-10T12:24:05;48.13;;;9.32;;
22103;SDS011;11218;48.886;9.426;2023-05-10T12:26:35;62.53;;;11.30;;
22103;SDS011;11218;48.886;9.426;2023-05-10T12:29:13;63.15;;;11.05;;
22103;SDS011;11218;48.886;9.426;2023-05-10T12:31:50;51.30;;;9.50;;
22103;SDS011;11218;48.886;9.426;2023-05-10T12:34:23;39.33;;;7.95;;
22103;SDS011;11218;48.886;9.426;2023-05-10T12:36:52;59.10;;;10.68;;
22103;SDS011;11218;48.886;9.426;2023-05-10T12:39:20;54.70;;;9.52;;
22103;SDS011;11218;48.886;9.426;2023-05-10T12:41:50;56.85;;;10.45;;
22103;SDS011;11218;48.886;9.426;2023-05-10T12:44:19;47.00;;;8.88;;
22103;SDS011;11218;48.886;9.426;2023-05-10T12:46:47;53.17;;;9.77;;
22103;SDS011;11218;48.886;9.426;2023-05-10T12:49:15;44.83;;;8.57;;
22103;SDS011;11218;48.886;9.426;2023-05-10T12:51:45;49.42;;;9.23;;
22103;SDS011;11218;48.886;9.426;2023-05-10T12:54:13;41.70;;;7.70;;
22103;SDS011;11218;48.886;9.426;2023-05-10T12:56:41;50.92;;;9.50;;
22103;SDS011;11218;48.886;9.426;2023-05-10T12:59:11;38.78;;;7.22;;
22103;SDS011;11218;48.886;9.426;2023-05-10T13:01:39;36.28;;;6.57;;
22103;SDS011;11218;48.886;9.426;2023-05-10T13:04:07;38.08;;;7.20;;
22103;SDS011;11218;48.886;9.426;2023-05-10T13:06:35;55.13;;;10.32;;
22103;SDS011;11218;48.886;9.426;2023-05-10T13:09:04;31.50;;;6.13;;
22103;SDS011;11218;48.886;9.426;2023-05-10T13:11:32;34.13;;;6.40;;
22103;SDS011;11218;48.886;9.426;2023-05-10T13:14:00;35.20;;;6.38;;
22103;SDS011;11218;48.886;9.426;2023-05-10T13:16:31;24.40;;;4.55;;
22103;SDS011;11218;48.886;9.426;2023-05-10T13:19:00;31.90;;;5.72;;
22103;SDS011;11218;48.886;9.426;2023-05-10T13:21:29;39.72;;;7.55;;
22103;SDS011;11218;48.886;9.426;2023-05-10T13:23:57;39.53;;;7.35;;
22103;SDS011;11218;48.886;9.426;2023-05-10T13:26:26;31.88;;;6.28;;
22103;SDS011;11218;48.886;9.426;2023-05-10T13:28:54;36.65;;;6.78;;
22103;SDS011;11218;48.886;9.426;2023-05-10T13:31:22;41.88;;;7.75;;
22103;SDS011;11218;48.886;9.426;2023-05-10T13:33:52;44.22;;;7.78;;
22103;SDS011;11218;48.886;9.426;2023-05-10T13:36:20;32.95;;;6.70;;
22103;SDS011;11218;48.886;9.426;2023-05-10T13:38:49;44.05;;;8.18;;
22103;SDS011;11218;48.886;9.426;2023-05-10T13:41:17;37.80;;;7.30;;
22103;SDS011;11218;48.886;9.426;2023-05-10T13:43:45;33.90;;;6.55;;
22103;SDS011;11218;48.886;9.426;2023-05-10T13:46:15;33.75;;;6.50;;
22103;SDS011;11218;48.886;9.426;2023-05-10T13:48:43;49.30;;;8.63;;
22103;SDS011;11218;48.886;9.426;2023-05-10T13:51:12;42.97;;;7.95;;
22103;SDS011;11218;48.886;9.426;2023-05-10T13:53:41;36.00;;;7.00;;
22103;SDS011;11218;48.886;9.426;2023-05-10T13:56:09;36.72;;;6.90;;
22103;SDS011;11218;48.886;9.426;2023-05-10T13:58:37;34.70;;;6.97;;
22103;SDS011;11218;48.886;9.426;2023-05-10T14:01:05;34.35;;;6.80;;
22103;SDS011;11218;48.886;9.426;2023-05-10T14:03:34;37.15;;;7.45;;
22103;SDS011;11218;48.886;9.426;2023-05-10T14:06:02;40.42;;;7.63;;
22103;SDS011;11218;48.886;9.426;2023-05-10T14:08:32;37.47;;;7.22;;
22103;SDS011;11218;48.886;9.426;2023-05-10T14:11:00;38.72;;;7.28;;
22103;SDS011;11218;48.886;9.426;2023-05-10T14:13:28;39.40;;;6.75;;
22103;SDS011;11218;48.886;9.426;2023-05-10T14:15:56;24.65;;;4.93;;
22103;SDS011;11218;48.886;9.426;2023-05-10T14:18:26;37.35;;;7.20;;
22103;SDS011;11218;48.886;9.426;2023-05-10T14:20:55;27.65;;;5.32;;
22103;SDS011;11218;48.886;9.426;2023-05-10T14:23:23;35.83;;;6.97;;
22103;SDS011;11218;48.886;9.426;2023-05-10T14:25:53;28.63;;;5.78;;
22103;SDS011;11218;48.886;9.426;2023-05-10T14:28:21;41.13;;;7.57;;
22103;SDS011;11218;48.886;9.426;2023-05-10T14:30:51;44.15;;;7.75;;
22103;SDS011;11218;48.886;9.426;2023-05-10T14:33:18;34.00;;;6.60;;
22103;SDS011;11218;48.886;9.426;2023-05-10T14:35:47;54.95;;;10.50;;
22103;SDS011;11218;48.886;9.426;2023-05-10T14:38:15;35.67;;;6.82;;
22103;SDS011;11218;48.886;9.426;2023-05-10T14:40:43;29.50;;;5.18;;
22103;SDS011;11218;48.886;9.426;2023-05-10T14:43:13;31.88;;;6.25;;
22103;SDS011;11218;48.886;9.426;2023-05-10T14:45:42;39.95;;;7.55;;
22103;SDS011;11218;48.886;9.426;2023-05-10T14:48:11;38.90;;;7.47;;
22103;SDS011;11218;48.886;9.426;2023-05-10T14:50:41;36.38;;;6.60;;
22103;SDS011;11218;48.886;9.426;2023-05-10T14:53:09;27.10;;;5.15;;
22103;SDS011;11218;48.886;9.426;2023-05-10T14:55:38;33.53;;;6.53;;
22103;SDS011;11218;48.886;9.426;2023-05-10T14:58:06;26.35;;;5.45;;
22103;SDS011;11218;48.886;9.426;2023-05-10T15:00:36;27.58;;;5.72;;
22103;SDS011;11218;48.886;9.426;2023-05-10T15:03:04;21.90;;;3.92;;
22103;SDS011;11218;48.886;9.426;2023-05-10T15:05:33;30.45;;;5.88;;